EPPO/POZ METAR and TAF weather

Enter ICAO airport designator
Station Type Date Time Source
EPPO METAR 2022/01/29 02:00 UTC NOAA

EPPO 290200Z 24005KT CAVOK M01/M03 Q1024


Station Type Date Time Source
EPPO Decoded METAR 2022/01/29 02:00 UTC NOAA

Poznan, Poland (EPPO) 52-25N 016-50E 92M
Jan 28, 2022 - 09:00 PM EST / 2022.01.29 0200 UTC
Wind: from the WSW (240 degrees) at 6 MPH (5 KT):0
Visibility: greater than 7 mile(s):0
Temperature: 30 F (-1 C)
Windchill: 23 F (-5 C):1
Dew Point: 26 F (-3 C)
Relative Humidity: 86%
Pressure (altimeter): 30.24 in. Hg (1024 hPa)
ob: EPPO 290200Z 24005KT CAVOK M01/M03 Q1024
cycle: 2

Station Type Date Time Source
EPPO TAF 2022/01/28 18:33 UTC NOAA

TAF EPPO 281730Z 2818/2918 30012KT 9999 SCT030 PROB30
TEMPO 2900/2903 3000 BR
BECMG 2903/2906 22012KT 4000 -RASN BR OVC012
TEMPO 2906/2915 2000 RASN OVC005
BECMG 2909/2912 22015G26KT
BECMG 2914/2916 25020G38KT

Example: see airport list